Flight Track Log - Related Links

Times and Time Zones

All times are in EDT time to prevent confusion due to time zone crossing. See the SWA1202 flight status page for this flight to view local times or setup timezone preferences in your user account.

Time Position Orientation Groundspeed Altitude Reporting Facility
EDT Latitude Longitude Course Direction KTS MPH feet Rate Location/Type
Fri 06:10:00 PM 33.9372 -118.5378 264° West 222 255 4,200  Level Los Angeles Center
Fri 06:11:02 PM 33.9072 -118.6081 243° Southwest 251 289 7,100 2,661 Climbing Los Angeles Center
Fri 06:12:04 PM 33.8567 -118.6833 231° Southwest 280 322 9,700 2,129 Climbing Los Angeles Center
Fri 06:13:06 PM 33.8472 -118.7906 264° West 328 377 11,500 2,419 Climbing Los Angeles Center
Fri 06:14:00 PM 34.0811 -118.9278 296° West  Level FlightAware Approximate
Fri 06:14:08 PM 33.8617 -118.9003 279° West 344 396 14,700  Level Los Angeles Center
Fri 06:15:10 PM 33.9286 -118.9856 313° West 350 403 17,300 2,419 Climbing Los Angeles Center
Fri 06:16:12 PM 33.9964 -119.0769 312° West 363 418 19,700 2,323 Climbing Los Angeles Center
Fri 06:17:14 PM 34.0667 -119.1725 312° West 378 435 22,100 2,129 Climbing Los Angeles Center
Fri 06:18:16 PM 34.1372 -119.2689 312° West 385 443 24,100 2,032 Climbing Los Angeles Center
Fri 06:19:18 PM 34.2261 -119.3886 312° West 397 457 26,300 1,824 Climbing Los Angeles Center
Fri 06:20:21 PM 34.3031 -119.4903 313° West 405 466 27,900 1,536 Climbing Los Angeles Center
Fri 06:21:23 PM 34.3800 -119.5942 312° West 413 475 29,500 1,645 Climbing Los Angeles Center
Fri 06:22:25 PM 34.4578 -119.7011 311° West 420 483 31,300 1,694 Climbing Los Angeles Center
Fri 06:23:27 PM 34.5358 -119.8008 314° West 413 475 33,000 1,500 Climbing Los Angeles Center
Fri 06:24:29 PM 34.6392 -119.8764 329° Northwest 420 483 34,400 1,403 Climbing Los Angeles Center
Fri 06:25:31 PM 34.7517 -119.9700 326° Northwest 412 474 35,900 774 Climbing Los Angeles Center
Fri 06:26:33 PM 34.8467 -120.0494 326° Northwest 415 478 36,000 48 Climbing Los Angeles Center
Fri 06:27:35 PM 34.9331 -120.1222 325° Northwest 415 478 36,000  Level Los Angeles Center
Fri 06:28:37 PM 35.0281 -120.2006 326° Northwest 416 479 36,000  Level Los Angeles Center
Fri 06:29:39 PM 35.1417 -120.2958 326° Northwest 416 479 36,000  Level Los Angeles Center
Fri 06:30:41 PM 35.2367 -120.3739 326° Northwest 414 476 36,000  Level Los Angeles Center
Fri 06:31:44 PM 35.3286 -120.4539 325° Northwest 407 468 36,000  Level Los Angeles Center
Fri 06:32:16 PM 35.3828 -120.5019 324° Northwest 417 480 36,000  Level Oakland Center
Fri 06:33:17 PM 35.4789 -120.5825 326° Northwest 413 475 36,000  Level Oakland Center
Fri 06:34:19 PM 35.5722 -120.6617 325° Northwest 407 468 36,000  Level Oakland Center
Fri 06:35:20 PM 35.6661 -120.7417 325° Northwest 409 471 36,000  Level Oakland Center
Fri 06:36:22 PM 35.7589 -120.8211 325° Northwest 408 470 36,000  Level Oakland Center
Fri 06:37:23 PM 35.8508 -120.9000 325° Northwest 406 467 36,000 -934 Level Oakland Center
Fri 06:38:24 PM 35.9619 -120.9964 325° Northwest 406 467 34,100 -2,439 Descending Oakland Center
Fri 06:39:26 PM 36.0561 -121.0753 326° Northwest 408 470 31,000 -2,878 Descending Oakland Center
Fri 06:40:27 PM 36.1500 -121.1558 325° Northwest 411 473 28,200 -2,537 Descending Oakland Center
Fri 06:41:29 PM 36.2397 -121.2361 324° Northwest 403 464 25,800 -2,439 Descending Oakland Center
Fri 06:42:30 PM 36.3292 -121.3111 326° Northwest 394 453 23,200 -2,390 Descending Oakland Center
Fri 06:43:32 PM 36.4114 -121.3861 324° Northwest 375 432 20,900 -2,341 Descending Oakland Center
Fri 06:44:33 PM 36.5025 -121.4394 335° Northwest 375 432 18,400 -2,439 Descending Oakland Center
Fri 06:45:35 PM 36.6019 -121.4586 351° North 371 427 15,900 -2,634 Descending Oakland Center
Fri 06:46:36 PM 36.7175 -121.4881 348° North 358 412 13,000 -2,488 Descending Oakland Center
Fri 06:47:38 PM 36.8103 -121.5103 349° North 344 396 10,800 -1,463 Descending Oakland Center
Fri 06:48:39 PM 36.8986 -121.5303 350° North 321 369 10,000 -1,171 Descending Oakland Center
Fri 06:49:41 PM 36.9683 -121.5731 334° Northwest 293 337 8,400 -1,220 Descending Oakland Center
Fri 06:50:42 PM 37.0331 -121.6208 329° Northwest 276 318 7,500 -1,328 Descending Oakland Center
Fri 06:51:43 PM 37.1000 -121.6675 331° Northwest 275 316 5,700 -1,292 Descending Oakland Center
Fri 06:52:52 PM 37.1833 -121.7333 328° Northwest 242 278 4,700 -1,220 Descending Northern Cal TRACON
Fri 06:53:46 PM 37.2167 -121.7833 310° West 253 291 3,200 -1,350 Descending Northern Cal TRACON
Fri 06:54:52 PM 37.2833 -121.8333 329° Northwest 209 241 2,000 -829 Descending Northern Cal TRACON
Fri 06:55:49 PM 37.3011 -121.8642 306° West 211 243 1,500 -661 Descending Oakland Center
Fri 06:56:50 PM 37.3306 -121.8947 320° Northwest 166 191 700 -787 Descending Oakland Center
Fri 06:59:00 PM 37.3500 -121.9167 North  Level FlightAware Approximate
Fri 07:06:00 PM 37.3627 -121.9291 North  Level Estimated

Login

Don't have an account? Register now (free) for customized features, flight alerts, and more!